Time;durP1;ratioP1;P1;durP2;ratioP2;P2;SDS_P1;SDS_P2;PMS_P1;PMS_P2;Temp;Humidity;BMP_temperature;BMP_pressure;BME280_temperature;BME280_humidity;BME280_pressure;Samples;Min_cycle;Max_cycle;Signal;HPM_P1;HPM_P2
2021/01/18 00:00:24;;;;;;;1.30;1.10;;;16.40;44.20;;;;;;6137755;23;20129;-78
2021/01/18 00:02:53;;;;;;;1.67;1.13;;;16.30;44.20;;;;;;6112453;23;20156;-79
2021/01/18 00:05:18;;;;;;;0.77;0.77;;;16.40;44.10;;;;;;6111595;23;20218;-79
2021/01/18 00:07:48;;;;;;;1.20;1.08;;;16.30;44.20;;;;;;6137379;23;20568;-79
2021/01/18 00:10:21;;;;;;;1.52;1.23;;;16.40;44.20;;;;;;6112328;23;20524;-78
2021/01/18 00:12:51;;;;;;;1.13;0.90;;;16.40;44.10;;;;;;6136931;23;20564;-78
2021/01/18 00:15:20;;;;;;;1.20;1.02;;;16.40;44.20;;;;;;6087538;23;20477;-79
2021/01/18 00:17:46;;;;;;;1.20;1.10;;;16.40;44.00;;;;;;6086714;23;20172;-79
2021/01/18 00:20:32;;;;;;;2.17;0.90;;;16.40;44.20;;;;;;6137995;23;20141;-78
2021/01/18 00:23:01;;;;;;;0.98;0.98;;;16.40;44.20;;;;;;6134447;23;20143;-78
2021/01/18 00:25:29;;;;;;;1.00;0.77;;;16.40;44.10;;;;;;6137767;23;20159;-78
2021/01/18 00:28:04;;;;;;;1.48;1.00;;;16.40;43.90;;;;;;6137707;23;20140;-79
2021/01/18 00:30:30;;;;;;;1.15;1.05;;;16.40;43.90;;;;;;6137755;23;20234;-79
2021/01/18 00:32:58;;;;;;;1.10;1.00;;;16.40;43.90;;;;;;6136901;23;20464;-78
2021/01/18 00:35:25;;;;;;;1.33;1.10;;;16.40;44.00;;;;;;6136696;23;20247;-79
2021/01/18 00:37:51;;;;;;;1.17;0.95;;;16.40;43.90;;;;;;6110247;23;20192;-79
2021/01/18 00:40:19;;;;;;;1.20;1.05;;;16.40;43.90;;;;;;6111218;23;20136;-78
2021/01/18 00:42:44;;;;;;;0.90;0.80;;;16.50;43.90;;;;;;6111553;23;20137;-79
2021/01/18 00:45:12;;;;;;;1.30;1.00;;;16.50;43.90;;;;;;6136486;23;20139;-79
2021/01/18 00:47:42;;;;;;;1.55;0.90;;;16.50;43.80;;;;;;6110388;23;20154;-79
2021/01/18 00:50:10;;;;;;;1.60;1.20;;;16.50;43.90;;;;;;6110624;23;20580;-78
2021/01/18 00:52:38;;;;;;;2.53;1.23;;;16.40;44.60;;;;;;6087294;23;20186;-79
2021/01/18 00:55:04;;;;;;;1.73;1.10;;;16.40;44.10;;;;;;6112015;23;20140;-79
2021/01/18 00:57:33;;;;;;;1.50;1.10;;;16.40;44.20;;;;;;6110225;23;20209;-78
2021/01/18 00:59:59;;;;;;;1.75;1.00;;;16.30;44.20;;;;;;6086621;23;20141;-78
2021/01/18 01:02:26;;;;;;;1.10;1.00;;;16.30;44.20;;;;;;6137503;23;20196;-78
2021/01/18 01:04:51;;;;;;;1.02;0.93;;;16.30;44.20;;;;;;6110797;23;20159;-79
2021/01/18 01:07:26;;;;;;;1.02;0.88;;;16.30;44.30;;;;;;6110581;23;20548;-79
2021/01/18 01:09:51;;;;;;;1.75;1.13;;;16.40;44.20;;;;;;6135462;23;20150;-78
2021/01/18 01:12:20;;;;;;;1.20;1.02;;;16.40;44.00;;;;;;6136544;23;20152;-78
2021/01/18 01:14:48;;;;;;;1.40;1.17;;;16.40;44.10;;;;;;6137023;23;20144;-78
2021/01/18 01:17:13;;;;;;;1.30;1.10;;;16.40;44.20;;;;;;6109556;23;20523;-79
2021/01/18 01:19:39;;;;;;;1.50;1.15;;;16.40;44.10;;;;;;6110086;23;20140;-80
2021/01/18 01:22:06;;;;;;;1.48;1.02;;;16.50;43.90;;;;;;6136158;23;20137;-79
2021/01/18 01:24:31;;;;;;;1.85;1.00;;;16.40;44.00;;;;;;6136339;23;20133;-78
2021/01/18 01:27:00;;;;;;;1.50;1.10;;;16.40;43.90;;;;;;6085627;23;20144;-79
2021/01/18 01:29:26;;;;;;;1.25;0.80;;;16.40;44.00;;;;;;6135342;23;20655;-79
2021/01/18 01:31:51;;;;;;;1.02;0.88;;;16.50;43.90;;;;;;6135384;23;20201;-79
2021/01/18 01:34:17;;;;;;;1.35;0.98;;;16.50;43.90;;;;;;6136033;23;20191;-79
2021/01/18 01:36:44;;;;;;;1.35;1.20;;;16.50;43.80;;;;;;6135659;23;20167;-79
2021/01/18 01:39:11;;;;;;;1.48;1.00;;;16.50;43.90;;;;;;6109140;23;20234;-79
2021/01/18 01:41:37;;;;;;;0.82;0.82;;;16.50;43.90;;;;;;6135649;23;20133;-79
2021/01/18 01:44:12;;;;;;;1.23;1.00;;;16.50;43.80;;;;;;6135846;23;20136;-79
2021/01/18 01:46:38;;;;;;;1.63;1.10;;;16.50;43.90;;;;;;6109408;23;20148;-80
2021/01/18 01:49:05;;;;;;;1.42;1.20;;;16.40;43.90;;;;;;6109124;23;20136;-79
2021/01/18 01:51:32;;;;;;;1.25;1.05;;;16.40;43.90;;;;;;6085429;23;20164;-78
2021/01/18 01:54:00;;;;;;;1.10;1.00;;;16.40;44.00;;;;;;6084528;23;20217;-79
2021/01/18 01:56:26;;;;;;;1.63;1.10;;;16.40;43.90;;;;;;6135437;23;20167;-78
2021/01/18 01:58:53;;;;;;;1.15;0.95;;;16.40;44.10;;;;;;6084894;23;20568;-79
2021/01/18 02:01:20;;;;;;;1.27;1.05;;;16.40;44.00;;;;;;6108636;23;20140;-79
2021/01/18 02:03:46;;;;;;;1.40;1.10;;;16.40;44.00;;;;;;6084838;23;20214;-79
2021/01/18 02:06:16;;;;;;;1.20;1.00;;;16.40;44.00;;;;;;6109077;23;20136;-79
2021/01/18 02:08:45;;;;;;;1.17;0.90;;;16.40;44.00;;;;;;6134653;23;20460;-79
2021/01/18 02:11:11;;;;;;;1.33;1.20;;;16.50;43.90;;;;;;6108132;23;20137;-79
2021/01/18 02:13:55;;;;;;;1.10;1.00;;;16.50;43.90;;;;;;6133942;23;20132;-78
2021/01/18 02:16:29;;;;;;;1.10;1.00;;;16.50;43.80;;;;;;6134349;23;20140;-79
2021/01/18 02:19:18;;;;;;;1.20;0.93;;;16.50;43.80;;;;;;6108103;23;20145;-79
2021/01/18 02:21:54;;;;;;;1.25;1.10;;;16.50;43.80;;;;;;6108696;23;20136;-79
2021/01/18 02:24:41;;;;;;;1.30;1.10;;;16.40;44.00;;;;;;6108517;23;20136;-79
2021/01/18 02:27:30;;;;;;;1.63;1.20;;;16.40;43.90;;;;;;6110103;23;20147;-79
2021/01/18 02:30:43;;;;;;;1.13;1.02;;;16.50;43.80;;;;;;6015934;23;20159;-78
2021/01/18 02:33:40;;;;;;;1.90;1.17;;;16.50;43.70;;;;;;5932305;24;20166;-79
2021/01/18 02:37:14;;;;;;;1.10;1.00;;;16.50;43.80;;;;;;5932199;24;20221;-79
2021/01/18 02:40:17;;;;;;;1.02;0.93;;;16.50;43.70;;;;;;5773190;24;20249;-79
2021/01/18 02:43:04;;;;;;;1.20;1.00;;;16.50;43.70;;;;;;5773280;24;20160;-79
2021/01/18 02:45:31;;;;;;;1.10;1.00;;;16.50;43.70;;;;;;5772059;24;20156;-79
2021/01/18 02:47:57;;;;;;;1.42;0.98;;;16.50;43.70;;;;;;5772839;24;20165;-79
2021/01/18 02:50:23;;;;;;;1.27;1.05;;;16.40;43.90;;;;;;5773539;24;20187;-78
2021/01/18 02:52:54;;;;;;;1.15;1.05;;;16.40;43.90;;;;;;5773630;24;20149;-79
2021/01/18 02:55:20;;;;;;;1.70;1.25;;;16.40;43.90;;;;;;5775755;24;20169;-79
2021/01/18 02:57:48;;;;;;;1.40;1.05;;;16.50;43.90;;;;;;5775853;24;20192;-79
2021/01/18 03:00:15;;;;;;;1.10;0.95;;;16.40;44.00;;;;;;5775508;24;20174;-78
2021/01/18 03:03:00;;;;;;;1.35;1.10;;;16.40;44.00;;;;;;5776180;24;20171;-78
2021/01/18 03:05:35;;;;;;;1.23;1.05;;;16.40;43.90;;;;;;5775843;24;20151;-79
2021/01/18 03:08:33;;;;;;;1.02;0.93;;;16.40;43.90;;;;;;5824113;24;20159;-78
2021/01/18 03:11:03;;;;;;;1.20;1.05;;;16.40;43.90;;;;;;5881259;24;20154;-79
2021/01/18 03:13:55;;;;;;;1.60;1.00;;;16.50;43.80;;;;;;5928789;23;20544;-79
2021/01/18 03:16:22;;;;;;;1.20;1.00;;;16.50;43.80;;;;;;6116534;23;20631;-78
2021/01/18 03:18:48;;;;;;;1.50;1.30;;;16.50;43.80;;;;;;6088275;23;20133;-78
2021/01/18 03:21:14;;;;;;;1.38;1.10;;;16.50;43.90;;;;;;6088210;23;20136;-79
2021/01/18 03:23:43;;;;;;;1.08;1.00;;;16.50;43.80;;;;;;6137805;23;20136;-78
2021/01/18 03:26:09;;;;;;;1.20;1.00;;;16.40;43.90;;;;;;6112403;23;20142;-78
2021/01/18 03:28:41;;;;;;;1.33;1.00;;;16.40;43.90;;;;;;6138412;23;20513;-78
2021/01/18 03:31:06;;;;;;;1.40;1.10;;;16.40;43.90;;;;;;6111486;23;20132;-78
2021/01/18 03:33:32;;;;;;;1.33;1.00;;;16.50;43.90;;;;;;6111710;23;20146;-79
2021/01/18 03:36:06;;;;;;;1.40;1.15;;;16.40;44.00;;;;;;6137832;23;20191;-79
2021/01/18 03:38:32;;;;;;;1.45;1.13;;;16.40;43.90;;;;;;6138089;23;20187;-78
2021/01/18 03:41:01;;;;;;;1.08;0.90;;;16.40;44.00;;;;;;6111157;23;20171;-78
2021/01/18 03:43:27;;;;;;;1.23;1.00;;;16.40;43.90;;;;;;6112246;23;20135;-79
2021/01/18 03:45:53;;;;;;;1.20;1.10;;;16.40;43.90;;;;;;6112095;23;20140;-79
2021/01/18 03:48:18;;;;;;;1.13;0.98;;;16.40;43.90;;;;;;6138075;23;20139;-78
2021/01/18 03:50:44;;;;;;;0.93;0.82;;;16.40;43.80;;;;;;6137933;23;20137;-78
2021/01/18 03:53:10;;;;;;;1.73;1.33;;;16.50;43.80;;;;;;6111600;23;20504;-79
2021/01/18 03:55:37;;;;;;;1.20;1.10;;;16.50;43.80;;;;;;6137528;23;20199;-78
2021/01/18 03:58:03;;;;;;;2.10;1.08;;;16.50;43.70;;;;;;6111927;23;20183;-78
2021/01/18 04:00:31;;;;;;;1.10;1.00;;;16.50;43.70;;;;;;6138534;23;20627;-78
2021/01/18 04:02:56;;;;;;;1.30;1.02;;;16.50;43.80;;;;;;6111645;23;20132;-79
2021/01/18 04:05:23;;;;;;;1.08;0.98;;;16.40;44.50;;;;;;6111820;23;20187;-78
2021/01/18 04:07:50;;;;;;;1.30;1.13;;;16.40;44.00;;;;;;6137328;23;20160;-79
2021/01/18 04:10:19;;;;;;;1.30;1.08;;;16.40;44.00;;;;;;6112159;23;20132;-78
2021/01/18 04:12:46;;;;;;;1.25;1.10;;;16.40;43.90;;;;;;6088106;23;20156;-78
2021/01/18 04:15:14;;;;;;;1.30;0.90;;;16.50;43.90;;;;;;6111885;23;20136;-78
2021/01/18 04:17:44;;;;;;;1.27;0.95;;;16.50;43.90;;;;;;6137416;23;20168;-78
2021/01/18 04:20:10;;;;;;;1.20;1.10;;;16.50;43.70;;;;;;6112037;23;20139;-78
2021/01/18 04:22:52;;;;;;;1.42;1.15;;;16.50;43.60;;;;;;6112306;23;20133;-80
2021/01/18 04:25:38;;;;;;;1.17;0.93;;;16.50;43.80;;;;;;6114288;23;20136;-78
2021/01/18 04:28:25;;;;;;;1.10;0.98;;;16.40;43.80;;;;;;6136928;23;20136;-79
2021/01/18 04:31:06;;;;;;;1.00;0.90;;;16.40;43.80;;;;;;6136952;23;20568;-79
2021/01/18 04:33:32;;;;;;;1.10;0.98;;;16.40;43.90;;;;;;6137205;23;20180;-79
2021/01/18 04:35:59;;;;;;;1.35;1.02;;;16.40;43.90;;;;;;6087319;23;20137;-79
2021/01/18 04:38:24;;;;;;;1.48;1.10;;;16.50;43.80;;;;;;6111383;23;20519;-78
2021/01/18 04:40:50;;;;;;;1.20;1.00;;;16.50;43.60;;;;;;6087824;23;20172;-79
2021/01/18 04:43:19;;;;;;;1.38;1.08;;;16.60;43.60;;;;;;6137601;23;20215;-78
2021/01/18 04:45:45;;;;;;;1.48;1.10;;;16.60;43.60;;;;;;6137570;23;20469;-79
2021/01/18 04:48:12;;;;;;;1.17;0.98;;;16.60;43.50;;;;;;6136964;23;20143;-79
2021/01/18 04:50:38;;;;;;;1.60;1.15;;;16.60;43.40;;;;;;6138289;23;20200;-78
2021/01/18 04:53:18;;;;;;;1.10;0.90;;;16.50;43.50;;;;;;6111656;23;20468;-79
2021/01/18 04:55:48;;;;;;;0.93;0.80;;;16.60;43.30;;;;;;6088192;23;20144;-79
2021/01/18 04:58:15;;;;;;;1.00;0.90;;;16.60;43.20;;;;;;6138390;23;20164;-78
2021/01/18 05:00:43;;;;;;;1.02;0.93;;;16.60;43.20;;;;;;6112956;23;20137;-78
2021/01/18 05:03:19;;;;;;;1.02;0.93;;;16.60;43.30;;;;;;6140216;23;20132;-79
2021/01/18 05:06:08;;;;;;;0.98;0.88;;;16.50;43.50;;;;;;6091460;23;20160;-79
2021/01/18 05:08:59;;;;;;;1.10;1.00;;;16.50;43.50;;;;;;6139936;23;20138;-78
2021/01/18 05:11:25;;;;;;;1.42;1.10;;;16.50;43.50;;;;;;6138296;23;20148;-78
2021/01/18 05:13:50;;;;;;;1.85;1.27;;;16.50;43.40;;;;;;6112687;23;20530;-79
2021/01/18 05:16:16;;;;;;;1.30;1.13;;;16.50;43.20;;;;;;6139436;23;20136;-78
2021/01/18 05:18:41;;;;;;;1.20;0.98;;;16.50;43.20;;;;;;6112874;23;20221;-78
2021/01/18 05:21:09;;;;;;;1.10;1.00;;;16.50;43.30;;;;;;6138640;23;20139;-79
2021/01/18 05:23:45;;;;;;;0.98;0.88;;;16.40;43.30;;;;;;6138750;23;20132;-78
2021/01/18 05:26:22;;;;;;;1.25;1.10;;;16.40;43.50;;;;;;6113196;23;20501;-78
2021/01/18 05:28:48;;;;;;;0.80;0.73;;;16.40;43.30;;;;;;6113353;23;20132;-78
2021/01/18 05:31:40;;;;;;;1.45;1.20;;;16.40;43.40;;;;;;6113386;23;20145;-78
2021/01/18 05:34:14;;;;;;;1.33;1.00;;;16.50;43.20;;;;;;6134532;23;20666;-78
2021/01/18 05:36:48;;;;;;;1.08;0.98;;;16.50;43.00;;;;;;6137153;23;20168;-78
2021/01/18 05:39:17;;;;;;;1.75;1.20;;;16.50;43.00;;;;;;6111554;23;20187;-78
2021/01/18 05:41:46;;;;;;;1.60;1.13;;;16.50;43.00;;;;;;6138842;23;20139;-78
2021/01/18 05:44:13;;;;;;;1.27;0.90;;;16.50;43.00;;;;;;6137722;23;20557;-79
2021/01/18 05:46:47;;;;;;;1.13;1.02;;;16.50;42.90;;;;;;6088126;23;20140;-78
2021/01/18 05:49:18;;;;;;;1.23;1.02;;;16.40;43.10;;;;;;6138148;23;20217;-79
2021/01/18 05:51:53;;;;;;;1.58;1.30;;;16.40;43.00;;;;;;6111006;23;20144;-79
2021/01/18 05:54:25;;;;;;;1.85;1.40;;;16.40;42.90;;;;;;6112499;23;20168;-78
2021/01/18 05:56:56;;;;;;;1.42;1.17;;;16.50;42.80;;;;;;6137958;23;20223;-79
2021/01/18 05:59:25;;;;;;;1.33;1.10;;;16.50;42.90;;;;;;6111118;23;20136;-79
2021/01/18 06:01:54;;;;;;;1.10;0.98;;;16.50;42.80;;;;;;6112197;23;20140;-78
2021/01/18 06:04:22;;;;;;;1.48;1.13;;;16.50;42.60;;;;;;6140154;23;20143;-79
2021/01/18 06:07:02;;;;;;;0.98;0.90;;;16.50;42.70;;;;;;6112868;23;20136;-78
2021/01/18 06:09:44;;;;;;;1.45;1.10;;;16.60;42.60;;;;;;6138411;23;20628;-78
2021/01/18 06:12:25;;;;;;;1.92;1.10;;;16.50;42.70;;;;;;6090108;23;20140;-79
2021/01/18 06:15:11;;;;;;;1.13;1.02;;;16.50;42.70;;;;;;6114683;23;20155;-79
2021/01/18 06:17:48;;;;;;;1.38;1.15;;;16.50;42.50;;;;;;6020828;23;20609;-78
2021/01/18 06:20:26;;;;;;;1.52;1.27;;;16.50;42.50;;;;;;6022066;23;20151;-78
2021/01/18 06:23:20;;;;;;;1.08;0.98;;;16.50;42.20;;;;;;5999774;23;20155;-78
2021/01/18 06:25:48;;;;;;;1.25;1.15;;;16.50;42.50;;;;;;6021848;23;20146;-78
2021/01/18 06:28:32;;;;;;;1.33;1.00;;;16.50;42.30;;;;;;5998496;23;20531;-78
2021/01/18 06:31:18;;;;;;;1.52;1.20;;;16.60;42.30;;;;;;6021523;23;20207;-78
2021/01/18 06:34:08;;;;;;;1.40;1.17;;;16.60;42.30;;;;;;5998804;23;20151;-78
2021/01/18 06:36:58;;;;;;;1.20;1.10;;;16.50;42.20;;;;;;6022702;23;20143;-77
2021/01/18 06:39:25;;;;;;;1.20;1.10;;;16.60;42.10;;;;;;6022763;23;20201;-78
2021/01/18 06:42:17;;;;;;;1.38;1.27;;;16.60;42.20;;;;;;6022365;23;20151;-77
2021/01/18 06:44:44;;;;;;;1.95;1.33;;;16.50;42.10;;;;;;6020697;23;20139;-78
2021/01/18 06:47:22;;;;;;;1.40;1.30;;;16.60;42.40;;;;;;5999010;23;20154;-78
2021/01/18 06:50:03;;;;;;;1.35;1.23;;;16.50;42.30;;;;;;6022134;23;20139;-78
2021/01/18 06:52:30;;;;;;;1.63;1.10;;;16.50;42.00;;;;;;6000665;23;20142;-77
2021/01/18 06:55:01;;;;;;;1.20;1.10;;;16.50;42.10;;;;;;6057271;23;20159;-78
2021/01/18 06:57:45;;;;;;;1.50;1.40;;;16.50;42.00;;;;;;6114713;23;20168;-78
2021/01/18 07:00:31;;;;;;;1.30;1.17;;;16.60;42.00;;;;;;6139718;23;20132;-78
2021/01/18 07:03:12;;;;;;;1.33;1.23;;;16.50;42.20;;;;;;6111145;23;20168;-78
2021/01/18 07:05:49;;;;;;;1.13;1.02;;;16.50;42.30;;;;;;6091209;23;20134;-78
2021/01/18 07:08:19;;;;;;;1.40;1.13;;;16.50;42.40;;;;;;6088497;23;20140;-77
2021/01/18 07:10:50;;;;;;;1.65;1.30;;;16.50;42.40;;;;;;6112176;23;20183;-78
2021/01/18 07:13:20;;;;;;;2.50;1.45;;;16.50;42.20;;;;;;6087643;23;20162;-78
2021/01/18 07:15:49;;;;;;;1.55;1.17;;;16.50;42.20;;;;;;6136981;23;20140;-78
2021/01/18 07:18:16;;;;;;;1.42;1.30;;;16.60;42.10;;;;;;6110579;23;20519;-78
2021/01/18 07:20:47;;;;;;;1.20;1.10;;;16.50;42.10;;;;;;6112244;23;20144;-77
2021/01/18 07:23:16;;;;;;;1.52;1.30;;;16.50;42.10;;;;;;6111231;23;20132;-78
2021/01/18 07:25:43;;;;;;;1.55;1.30;;;16.50;42.10;;;;;;6137219;23;20143;-79
2021/01/18 07:28:11;;;;;;;1.63;1.38;;;16.50;42.00;;;;;;6112220;23;20136;-78
2021/01/18 07:30:37;;;;;;;1.55;1.40;;;16.50;41.80;;;;;;6113295;23;20472;-78
2021/01/18 07:33:10;;;;;;;1.33;1.20;;;16.50;41.90;;;;;;6112070;23;20163;-78
2021/01/18 07:35:37;;;;;;;1.77;1.40;;;16.50;41.70;;;;;;6108558;23;20218;-77
2021/01/18 07:38:22;;;;;;;1.60;1.30;;;16.60;41.70;;;;;;6079334;23;20203;-77
2021/01/18 07:41:20;;;;;;;2.10;1.10;;;16.60;41.40;;;;;;6105394;23;20132;-78
2021/01/18 07:43:51;;;;;;;1.67;1.30;;;16.70;41.30;;;;;;5988946;23;20238;-78
2021/01/18 07:46:30;;;;;;;1.67;1.50;;;16.70;41.40;;;;;;5989450;23;20603;-78
2021/01/18 07:49:24;;;;;;;1.30;1.20;;;16.70;41.40;;;;;;6013015;23;20229;-77
2021/01/18 07:52:48;;;;;;;1.60;1.40;;;16.70;41.00;;;;;;6012224;23;20147;-78
2021/01/18 07:55:34;;;;;;;1.27;1.17;;;16.70;41.20;;;;;;6013572;23;20214;-78
2021/01/18 07:58:35;;;;;;;1.58;1.20;;;16.80;41.20;;;;;;6010304;23;20182;-78
2021/01/18 08:01:26;;;;;;;2.00;1.13;;;16.70;40.90;;;;;;6009942;23;20163;-78
2021/01/18 08:04:15;;;;;;;1.35;1.25;;;16.70;41.20;;;;;;5986594;23;20700;-78
2021/01/18 08:07:29;;;;;;;1.35;1.15;;;16.70;40.90;;;;;;6020949;23;20159;-78
2021/01/18 08:10:15;;;;;;;1.25;1.15;;;16.80;41.00;;;;;;6017369;23;20139;-79
2021/01/18 08:13:00;;;;;;;1.50;1.40;;;16.80;40.90;;;;;;6010554;23;20143;-78
2021/01/18 08:15:46;;;;;;;2.75;1.50;;;16.80;40.80;;;;;;6011166;23;20166;-79
2021/01/18 08:18:53;;;;;;;1.63;1.30;;;16.80;41.00;;;;;;6011592;23;20171;-79
2021/01/18 08:21:42;;;;;;;1.65;1.30;;;16.70;40.90;;;;;;6128464;23;20136;-79
2021/01/18 08:24:23;;;;;;;1.60;1.35;;;16.80;41.00;;;;;;6129441;23;20163;-78
2021/01/18 08:27:00;;;;;;;1.50;1.40;;;16.70;40.70;;;;;;6129930;23;20136;-79
2021/01/18 08:29:35;;;;;;;1.55;1.45;;;16.80;40.70;;;;;;6129928;23;20140;-79
2021/01/18 08:32:30;;;;;;;1.58;1.38;;;16.80;40.60;;;;;;6129572;23;20479;-79
2021/01/18 08:34:56;;;;;;;1.63;1.40;;;16.90;40.50;;;;;;6129426;23;20647;-79
2021/01/18 08:37:22;;;;;;;1.60;1.50;;;16.90;40.50;;;;;;6102904;23;20171;-79
2021/01/18 08:40:15;;;;;;;1.35;1.17;;;16.80;40.50;;;;;;6102927;23;20190;-78
2021/01/18 08:42:44;;;;;;;1.30;1.20;;;16.90;40.50;;;;;;6129650;23;20140;-78
2021/01/18 08:45:11;;;;;;;1.20;1.10;;;16.90;40.50;;;;;;6104378;23;20132;-79
2021/01/18 08:47:39;;;;;;;1.35;1.25;;;16.90;40.60;;;;;;6104887;23;20170;-77
2021/01/18 08:50:21;;;;;;;1.60;1.38;;;16.80;40.70;;;;;;6131250;23;20212;-77
2021/01/18 08:52:52;;;;;;;2.78;1.50;;;16.80;40.50;;;;;;6130101;23;20635;-77
2021/01/18 08:55:30;;;;;;;1.52;1.42;;;16.80;40.50;;;;;;6104354;23;20136;-77
2021/01/18 08:58:05;;;;;;;1.83;1.52;;;16.80;40.40;;;;;;6129022;23;20215;-78
2021/01/18 09:00:47;;;;;;;1.45;1.35;;;16.80;40.50;;;;;;6132137;23;20449;-76
2021/01/18 09:03:23;;;;;;;1.67;1.42;;;16.90;40.40;;;;;;6136289;23;20140;-76
2021/01/18 09:05:56;;;;;;;1.75;1.45;;;16.90;40.30;;;;;;6132006;23;20136;-77
2021/01/18 09:08:23;;;;;;;1.40;1.30;;;16.80;40.30;;;;;;6110343;23;20140;-77
2021/01/18 09:11:02;;;;;;;3.22;1.50;;;16.80;40.50;;;;;;6137879;23;20136;-77
2021/01/18 09:13:30;;;;;;;2.70;1.50;;;16.80;40.60;;;;;;6113126;23;20216;-76
2021/01/18 09:15:58;;;;;;;2.13;1.70;;;16.70;40.50;;;;;;6136926;23;20148;-77
2021/01/18 09:18:25;;;;;;;2.15;1.40;;;16.80;40.40;;;;;;6138149;23;20253;-76
2021/01/18 09:21:12;;;;;;;8.27;1.60;;;16.80;40.40;;;;;;6136995;23;20129;-77
2021/01/18 09:23:39;;;;;;;5.78;1.40;;;16.80;40.20;;;;;;6134155;23;20171;-77
2021/01/18 09:26:07;;;;;;;3.08;1.55;;;16.80;40.30;;;;;;6111157;23;20198;-78
2021/01/18 09:28:33;;;;;;;6.03;2.25;;;16.90;40.10;;;;;;6109122;23;20540;-77
2021/01/18 09:31:14;;;;;;;11.68;2.05;;;16.90;40.20;;;;;;6104928;23;20219;-77
2021/01/18 09:33:47;;;;;;;17.10;2.15;;;16.80;40.20;;;;;;6128651;23;20835;-78
2021/01/18 09:36:18;;;;;;;11.43;2.17;;;16.80;40.30;;;;;;6130764;23;20144;-77
2021/01/18 09:38:46;;;;;;;9.93;1.90;;;16.80;40.40;;;;;;6132502;23;20195;-77
2021/01/18 09:41:15;;;;;;;11.52;2.22;;;16.80;40.30;;;;;;6133773;23;20237;-78
2021/01/18 09:43:42;;;;;;;13.13;2.20;;;16.80;40.40;;;;;;6130597;23;20231;-79
2021/01/18 09:46:17;;;;;;;13.20;2.10;;;16.80;40.20;;;;;;6104864;23;20142;-78
2021/01/18 09:48:49;;;;;;;8.85;2.30;;;16.90;40.20;;;;;;6107771;23;20140;-77
2021/01/18 09:51:20;;;;;;;7.22;1.90;;;16.90;40.20;;;;;;6061764;23;20175;-78
2021/01/18 09:53:54;;;;;;;5.15;1.88;;;16.80;40.10;;;;;;6112418;23;20214;-78
2021/01/18 09:56:21;;;;;;;9.20;2.05;;;16.90;40.00;;;;;;6110767;23;20148;-77
2021/01/18 09:58:54;;;;;;;6.88;1.70;;;16.90;40.00;;;;;;6089325;23;20148;-77
2021/01/18 10:01:24;;;;;;;8.02;1.80;;;16.90;40.10;;;;;;6138816;23;20172;-77
2021/01/18 10:03:56;;;;;;;8.75;1.98;;;16.80;40.10;;;;;;6112156;23;20218;-78
2021/01/18 10:06:27;;;;;;;4.30;1.58;;;16.90;40.10;;;;;;6111571;23;20148;-77
2021/01/18 10:09:02;;;;;;;2.90;1.70;;;16.90;40.10;;;;;;6110573;23;20128;-77
2021/01/18 10:11:46;;;;;;;5.80;1.95;;;16.90;40.10;;;;;;6107460;23;20182;-76
2021/01/18 10:14:24;;;;;;;6.22;1.90;;;16.90;40.10;;;;;;6134506;23;20215;-77
2021/01/18 10:17:05;;;;;;;4.25;2.15;;;16.90;40.00;;;;;;6110001;23;20638;-78
2021/01/18 10:19:39;;;;;;;4.18;1.60;;;17.00;39.80;;;;;;6111839;23;20136;-77
2021/01/18 10:22:36;;;;;;;4.32;1.77;;;16.90;40.00;;;;;;6138197;23;20132;-78
2021/01/18 10:25:10;;;;;;;6.43;2.20;;;16.90;39.90;;;;;;6135013;23;20133;-77
2021/01/18 10:27:36;;;;;;;4.60;1.98;;;16.90;40.00;;;;;;6138378;23;20196;-77
2021/01/18 10:30:21;;;;;;;2.65;1.70;;;16.90;40.10;;;;;;6088532;23;20183;-77
2021/01/18 10:32:51;;;;;;;7.50;1.80;;;16.90;40.10;;;;;;6112846;23;20144;-77
2021/01/18 10:35:21;;;;;;;4.78;2.20;;;16.90;40.20;;;;;;6138224;23;20188;-77
2021/01/18 10:37:47;;;;;;;4.20;2.05;;;16.90;40.30;;;;;;6137962;23;20204;-78
2021/01/18 10:40:19;;;;;;;4.88;2.20;;;16.90;40.10;;;;;;6137285;23;20133;-77
2021/01/18 10:42:52;;;;;;;3.28;1.60;;;16.90;40.10;;;;;;6111376;23;20572;-77
2021/01/18 10:45:20;;;;;;;5.75;2.03;;;16.90;40.10;;;;;;6137998;23;20133;-77
2021/01/18 10:47:59;;;;;;;3.75;1.83;;;16.90;39.90;;;;;;6113520;23;20136;-77
2021/01/18 10:50:45;;;;;;;7.22;1.95;;;16.90;40.00;;;;;;6138127;23;20147;-77
2021/01/18 10:53:11;;;;;;;3.53;1.98;;;16.80;40.10;;;;;;6109862;23;20603;-78
2021/01/18 10:55:38;;;;;;;3.30;1.63;;;16.90;40.10;;;;;;6112710;23;20572;-77
2021/01/18 10:58:05;;;;;;;8.13;2.10;;;16.90;40.00;;;;;;6139485;23;20167;-78
2021/01/18 11:00:37;;;;;;;6.10;2.00;;;16.90;40.10;;;;;;6140950;23;20480;-78
2021/01/18 11:03:06;;;;;;;6.28;1.70;;;16.90;39.90;;;;;;6141160;23;20467;-78
2021/01/18 11:05:36;;;;;;;4.10;1.90;;;16.90;39.90;;;;;;6140770;23;20128;-77
2021/01/18 11:08:28;;;;;;;2.65;1.88;;;16.90;39.80;;;;;;6139818;23;20140;-78
2021/01/18 11:10:55;;;;;;;4.55;1.90;;;17.00;39.80;;;;;;6114937;23;20202;-78
2021/01/18 11:13:21;;;;;;;4.75;2.20;;;16.90;39.60;;;;;;6140188;23;20191;-77
2021/01/18 11:15:48;;;;;;;2.83;1.92;;;17.00;39.60;;;;;;6114203;23;20152;-77
2021/01/18 11:18:18;;;;;;;5.57;2.05;;;17.00;39.60;;;;;;6140778;23;20170;-77
2021/01/18 11:20:51;;;;;;;5.88;2.08;;;16.90;39.60;;;;;;6114151;23;20148;-77
2021/01/18 11:23:18;;;;;;;2.78;1.95;;;16.90;39.80;;;;;;6114145;23;20160;-77
2021/01/18 11:25:45;;;;;;;5.13;1.90;;;16.90;39.60;;;;;;6139195;23;20136;-77
2021/01/18 11:28:16;;;;;;;3.05;1.85;;;16.90;39.60;;;;;;6113504;23;20520;-77
2021/01/18 11:30:43;;;;;;;3.65;1.98;;;16.90;39.60;;;;;;6113021;23;20572;-77
2021/01/18 11:33:10;;;;;;;2.40;2.00;;;17.00;39.50;;;;;;6112798;23;20136;-77
2021/01/18 11:35:41;;;;;;;2.95;1.77;;;17.00;39.60;;;;;;6113415;23;20136;-78
2021/01/18 11:38:08;;;;;;;4.53;2.42;;;16.90;39.70;;;;;;6114385;23;20196;-78
2021/01/18 11:40:35;;;;;;;4.60;1.95;;;16.90;39.50;;;;;;6067329;23;20236;-78
2021/01/18 11:43:01;;;;;;;3.20;2.00;;;16.90;39.70;;;;;;6114807;23;20163;-78
2021/01/18 11:45:36;;;;;;;2.58;1.92;;;16.90;39.70;;;;;;6115668;23;20133;-78
2021/01/18 11:48:02;;;;;;;3.67;2.10;;;16.90;39.70;;;;;;6140163;23;20162;-78
2021/01/18 11:50:31;;;;;;;4.13;2.08;;;16.90;39.60;;;;;;6114702;23;20163;-77
2021/01/18 11:52:59;;;;;;;3.47;2.17;;;16.90;39.60;;;;;;6141748;23;20133;-78
2021/01/18 11:55:27;;;;;;;4.57;2.38;;;17.00;39.40;;;;;;6139572;23;20140;-78
2021/01/18 11:58:02;;;;;;;2.83;2.10;;;17.00;39.40;;;;;;6140191;23;20168;-78
2021/01/18 12:00:29;;;;;;;3.25;1.92;;;17.00;39.30;;;;;;6138520;23;20132;-78
2021/01/18 12:02:57;;;;;;;3.80;2.10;;;17.10;39.20;;;;;;6139374;23;20204;-78
2021/01/18 12:05:32;;;;;;;3.25;2.22;;;17.10;39.30;;;;;;6139598;23;20194;-78
2021/01/18 12:08:06;;;;;;;3.72;2.17;;;17.00;39.20;;;;;;6140988;23;20145;-78
2021/01/18 12:10:41;;;;;;;2.67;2.00;;;17.10;39.20;;;;;;6139698;23;20203;-78
2021/01/18 12:13:09;;;;;;;4.47;2.10;;;17.10;39.20;;;;;;6140147;23;20136;-77
2021/01/18 12:15:44;;;;;;;3.58;2.00;;;17.10;39.20;;;;;;6140761;23;20188;-77
2021/01/18 12:18:10;;;;;;;3.20;2.03;;;17.00;39.40;;;;;;6139739;23;20172;-78
2021/01/18 12:20:37;;;;;;;3.67;2.00;;;16.90;39.40;;;;;;6114370;23;20132;-78
2021/01/18 12:23:04;;;;;;;3.35;2.47;;;16.90;39.40;;;;;;6113419;23;20128;-78
2021/01/18 12:25:31;;;;;;;2.60;2.20;;;16.90;39.40;;;;;;6141006;23;20136;-76
2021/01/18 12:28:05;;;;;;;3.13;2.00;;;16.90;39.40;;;;;;6114022;23;20164;-76
2021/01/18 12:30:32;;;;;;;2.83;2.30;;;17.00;39.20;;;;;;6140923;23;20147;-77
2021/01/18 12:32:58;;;;;;;2.70;2.20;;;17.00;39.30;;;;;;6141197;23;20152;-76
2021/01/18 12:35:26;;;;;;;2.83;2.13;;;17.00;39.40;;;;;;6140302;23;20140;-76
2021/01/18 12:37:52;;;;;;;2.67;2.20;;;16.90;39.30;;;;;;6089945;23;20210;-77
2021/01/18 12:40:20;;;;;;;4.47;2.50;;;16.90;39.40;;;;;;6090717;23;20144;-76
2021/01/18 12:42:55;;;;;;;2.55;2.28;;;16.90;39.40;;;;;;6114531;23;20152;-76
2021/01/18 12:45:22;;;;;;;2.38;1.92;;;16.90;39.40;;;;;;6114692;23;20156;-77
2021/01/18 12:47:48;;;;;;;2.70;1.92;;;16.90;39.40;;;;;;6140387;23;20148;-76
2021/01/18 12:50:15;;;;;;;2.67;2.10;;;16.90;39.20;;;;;;6140079;23;20136;-76
2021/01/18 12:52:44;;;;;;;2.78;2.25;;;16.90;39.20;;;;;;6140149;23;20168;-77
2021/01/18 12:55:12;;;;;;;2.55;2.22;;;16.90;39.40;;;;;;6114651;23;20155;-78
2021/01/18 12:57:38;;;;;;;2.53;2.13;;;16.90;39.20;;;;;;6114579;23;20167;-77
2021/01/18 13:00:09;;;;;;;2.92;2.17;;;17.00;39.20;;;;;;6140174;23;20132;-77
2021/01/18 13:02:39;;;;;;;3.13;2.25;;;17.00;39.10;;;;;;6114142;23;20217;-77
2021/01/18 13:05:07;;;;;;;4.85;2.40;;;17.00;39.20;;;;;;6113495;23;20489;-76
2021/01/18 13:07:34;;;;;;;3.47;2.28;;;17.00;39.10;;;;;;6139478;23;20196;-76
2021/01/18 13:10:00;;;;;;;3.40;2.60;;;17.00;39.20;;;;;;6139505;23;20136;-77
2021/01/18 13:12:27;;;;;;;4.00;2.40;;;16.90;39.10;;;;;;6139053;23;20141;-76
2021/01/18 13:14:53;;;;;;;2.90;2.30;;;17.00;39.20;;;;;;6139735;23;20136;-77